Airports Sweden Stockholm Skavsta Airport

Stockholm Skavsta Airport (ESKN / NYO)

Facts about Stockholm Skavsta Airport

Name Stockholm Skavsta Airport
City Stockholm
Country Sweden
ICAO code ESKN
IATA code NYO
Elevation 42.6720 meters (140 feet)

Weather

METAR

Metar data retrieved Saturday, 20 July 2024 at 00:25 UTC (2 minutes ago)

ESKN 192350Z 27004KT CAVOK 15/12 Q1015

Live traffic

Navigraph Charts (account required)